aviador You're here:

KABY Decoded Metar

ALBANY in GA, USA
Report Time2018-05-21 16:40:00
UTC Time2018-05-21 16:49:09
Flight Rules mvfr MVFR
Wind140° at 07 kt
W.Decomp.*RWY 16: 6.7 kt HW 2.2 kt LCW
RWY 22: 1.5 kt HW 6.8 kt LCW
W.Rank140° ranks 33
Current wind is above 140° avg. (6.1)
Visibility6437 m
Phenomena:Light Rain
Vicinity thunderstorm
Mist
Clouds:Few 037 Hf
Overcast 055 Hf
Expected CloudBase > 400 ft AGL from Temp-Dew spread
Ceiling5,500 ft
Temp24°C (ISA +9)
Dew Point23°C (94% RH)
QNH1020 hPa
Density Alt1,411 ft
Elevation190 ft
Report Wrong Elevation
Raw Report
KABY 211640Z 14007KT 4SM VCTS -RA BR FEW037 OVC055 24/23 A3012 RMK
AO2 P0006 T02440233=

Extra information for KABY:More info

Metar Taf Metar & Taf Last 4 Metars F.Rules Stats Wind Profile Meteogram Temp Stats Airport Information Weather charts Add Link Nearby VenuesMetar ALERT Operation Metar Decoded Social comments

AIRNAV info for KABY